sensor_id;sensor_type;location;lat;lon;timestamp;temperature;humidity
23207;DHT22;11773;52.570;13.052;2023-11-18T00:00:40;7.10;99.90
23207;DHT22;11773;52.570;13.052;2023-11-18T00:03:10;7.00;99.90
23207;DHT22;11773;52.570;13.052;2023-11-18T00:05:40;7.00;99.90
23207;DHT22;11773;52.570;13.052;2023-11-18T00:08:10;7.00;99.90
23207;DHT22;11773;52.570;13.052;2023-11-18T00:10:39;6.90;99.90
23207;DHT22;11773;52.570;13.052;2023-11-18T00:13:09;7.00;99.90
23207;DHT22;11773;52.570;13.052;2023-11-18T00:15:38;7.10;99.90
23207;DHT22;11773;52.570;13.052;2023-11-18T00:18:08;7.10;99.90
23207;DHT22;11773;52.570;13.052;2023-11-18T00:20:38;7.00;99.90
23207;DHT22;11773;52.570;13.052;2023-11-18T00:23:08;6.90;99.90
23207;DHT22;11773;52.570;13.052;2023-11-18T00:25:37;6.90;99.90
23207;DHT22;11773;52.570;13.052;2023-11-18T00:28:08;6.80;99.90
23207;DHT22;11773;52.570;13.052;2023-11-18T00:30:37;6.90;99.90
23207;DHT22;11773;52.570;13.052;2023-11-18T00:33:07;6.80;99.90
23207;DHT22;11773;52.570;13.052;2023-11-18T00:35:37;7.00;99.90
23207;DHT22;11773;52.570;13.052;2023-11-18T00:38:07;7.00;99.90
23207;DHT22;11773;52.570;13.052;2023-11-18T00:40:38;7.20;99.90
23207;DHT22;11773;52.570;13.052;2023-11-18T00:43:07;7.20;99.90
23207;DHT22;11773;52.570;13.052;2023-11-18T00:45:37;7.20;99.90
23207;DHT22;11773;52.570;13.052;2023-11-18T00:48:08;7.10;99.90
23207;DHT22;11773;52.570;13.052;2023-11-18T00:50:38;7.20;99.90
23207;DHT22;11773;52.570;13.052;2023-11-18T00:53:07;7.10;99.90
23207;DHT22;11773;52.570;13.052;2023-11-18T00:55:37;7.20;99.90
23207;DHT22;11773;52.570;13.052;2023-11-18T00:58:09;7.20;99.90
23207;DHT22;11773;52.570;13.052;2023-11-18T01:00:39;7.20;99.90
23207;DHT22;11773;52.570;13.052;2023-11-18T01:03:08;7.00;99.90
23207;DHT22;11773;52.570;13.052;2023-11-18T01:05:38;7.10;99.90
23207;DHT22;11773;52.570;13.052;2023-11-18T01:08:08;7.10;99.90
23207;DHT22;11773;52.570;13.052;2023-11-18T01:10:38;7.30;99.90
23207;DHT22;11773;52.570;13.052;2023-11-18T01:13:07;7.30;99.90
23207;DHT22;11773;52.570;13.052;2023-11-18T01:15:37;7.20;99.90
23207;DHT22;11773;52.570;13.052;2023-11-18T01:18:06;7.30;99.90
23207;DHT22;11773;52.570;13.052;2023-11-18T01:20:36;7.20;99.90
23207;DHT22;11773;52.570;13.052;2023-11-18T01:23:06;7.20;99.90
23207;DHT22;11773;52.570;13.052;2023-11-18T01:25:36;7.20;99.90
23207;DHT22;11773;52.570;13.052;2023-11-18T01:28:06;7.10;99.90
23207;DHT22;11773;52.570;13.052;2023-11-18T01:30:36;7.10;99.90
23207;DHT22;11773;52.570;13.052;2023-11-18T01:33:06;7.10;99.90
23207;DHT22;11773;52.570;13.052;2023-11-18T01:35:36;7.20;99.90
23207;DHT22;11773;52.570;13.052;2023-11-18T01:38:06;7.30;99.90
23207;DHT22;11773;52.570;13.052;2023-11-18T01:40:36;7.20;99.90
23207;DHT22;11773;52.570;13.052;2023-11-18T01:43:10;7.10;99.90
23207;DHT22;11773;52.570;13.052;2023-11-18T01:45:42;7.10;99.90
23207;DHT22;11773;52.570;13.052;2023-11-18T01:48:12;7.30;99.90
23207;DHT22;11773;52.570;13.052;2023-11-18T01:50:43;7.30;99.90
23207;DHT22;11773;52.570;13.052;2023-11-18T01:53:14;7.10;99.90
23207;DHT22;11773;52.570;13.052;2023-11-18T01:55:44;7.30;99.90
23207;DHT22;11773;52.570;13.052;2023-11-18T01:58:14;7.20;99.90
23207;DHT22;11773;52.570;13.052;2023-11-18T02:00:46;7.20;99.90
23207;DHT22;11773;52.570;13.052;2023-11-18T02:03:16;7.10;99.90
23207;DHT22;11773;52.570;13.052;2023-11-18T02:05:46;7.10;99.90
23207;DHT22;11773;52.570;13.052;2023-11-18T02:08:16;7.30;99.90
23207;DHT22;11773;52.570;13.052;2023-11-18T02:10:57;7.20;99.90
23207;DHT22;11773;52.570;13.052;2023-11-18T02:13:26;7.20;99.90
23207;DHT22;11773;52.570;13.052;2023-11-18T02:15:57;7.10;99.90
23207;DHT22;11773;52.570;13.052;2023-11-18T02:18:29;7.10;99.90
23207;DHT22;11773;52.570;13.052;2023-11-18T02:21:00;7.10;99.90
23207;DHT22;11773;52.570;13.052;2023-11-18T02:23:32;7.20;99.90
23207;DHT22;11773;52.570;13.052;2023-11-18T02:26:02;7.20;99.90
23207;DHT22;11773;52.570;13.052;2023-11-18T02:28:33;7.10;99.90
23207;DHT22;11773;52.570;13.052;2023-11-18T02:31:14;7.20;99.90
23207;DHT22;11773;52.570;13.052;2023-11-18T02:33:48;7.10;99.90
23207;DHT22;11773;52.570;13.052;2023-11-18T02:39:06;6.90;99.90
23207;DHT22;11773;52.570;13.052;2023-11-18T02:41:42;6.90;99.90
23207;DHT22;11773;52.570;13.052;2023-11-18T02:44:16;6.90;99.90
23207;DHT22;11773;52.570;13.052;2023-11-18T02:46:48;7.10;99.90
23207;DHT22;11773;52.570;13.052;2023-11-18T02:49:17;7.10;99.90
23207;DHT22;11773;52.570;13.052;2023-11-18T02:51:47;7.00;99.90
23207;DHT22;11773;52.570;13.052;2023-11-18T02:54:17;7.00;99.90
23207;DHT22;11773;52.570;13.052;2023-11-18T02:56:46;6.90;99.90
23207;DHT22;11773;52.570;13.052;2023-11-18T02:59:16;7.00;99.90
23207;DHT22;11773;52.570;13.052;2023-11-18T03:01:46;6.80;99.90
23207;DHT22;11773;52.570;13.052;2023-11-18T03:04:16;6.90;99.90
23207;DHT22;11773;52.570;13.052;2023-11-18T03:06:46;7.00;99.90
23207;DHT22;11773;52.570;13.052;2023-11-18T03:09:16;7.00;99.90
23207;DHT22;11773;52.570;13.052;2023-11-18T03:11:46;6.90;99.90
23207;DHT22;11773;52.570;13.052;2023-11-18T03:14:17;7.00;99.90
23207;DHT22;11773;52.570;13.052;2023-11-18T03:16:47;7.00;99.90
23207;DHT22;11773;52.570;13.052;2023-11-18T03:19:17;7.00;99.90
23207;DHT22;11773;52.570;13.052;2023-11-18T03:21:53;7.00;99.90
23207;DHT22;11773;52.570;13.052;2023-11-18T03:24:23;7.10;99.90
23207;DHT22;11773;52.570;13.052;2023-11-18T03:26:53;7.10;99.90
23207;DHT22;11773;52.570;13.052;2023-11-18T03:29:23;7.00;99.90
23207;DHT22;11773;52.570;13.052;2023-11-18T03:31:53;7.00;99.90
23207;DHT22;11773;52.570;13.052;2023-11-18T03:34:22;7.00;99.90
23207;DHT22;11773;52.570;13.052;2023-11-18T03:36:52;7.00;99.90
23207;DHT22;11773;52.570;13.052;2023-11-18T03:39:23;7.00;99.90
23207;DHT22;11773;52.570;13.052;2023-11-18T03:41:54;7.00;99.90
23207;DHT22;11773;52.570;13.052;2023-11-18T03:44:25;7.10;99.90
23207;DHT22;11773;52.570;13.052;2023-11-18T03:46:54;7.10;99.90
23207;DHT22;11773;52.570;13.052;2023-11-18T03:49:24;7.20;99.90
23207;DHT22;11773;52.570;13.052;2023-11-18T03:51:53;7.20;99.90
23207;DHT22;11773;52.570;13.052;2023-11-18T03:54:23;7.20;99.90
23207;DHT22;11773;52.570;13.052;2023-11-18T03:56:53;7.30;99.90
23207;DHT22;11773;52.570;13.052;2023-11-18T03:59:23;7.30;99.90
23207;DHT22;11773;52.570;13.052;2023-11-18T04:01:53;7.20;99.90
23207;DHT22;11773;52.570;13.052;2023-11-18T04:04:22;7.20;99.90
23207;DHT22;11773;52.570;13.052;2023-11-18T04:06:52;7.20;99.90
23207;DHT22;11773;52.570;13.052;2023-11-18T04:09:21;7.30;99.90
23207;DHT22;11773;52.570;13.052;2023-11-18T04:11:51;7.20;99.90
23207;DHT22;11773;52.570;13.052;2023-11-18T04:14:21;7.20;99.90
23207;DHT22;11773;52.570;13.052;2023-11-18T04:16:50;7.20;99.90
23207;DHT22;11773;52.570;13.052;2023-11-18T04:19:21;7.20;99.90
23207;DHT22;11773;52.570;13.052;2023-11-18T04:21:50;7.20;99.90
23207;DHT22;11773;52.570;13.052;2023-11-18T04:24:20;7.20;99.90
23207;DHT22;11773;52.570;13.052;2023-11-18T04:26:50;7.30;99.90
23207;DHT22;11773;52.570;13.052;2023-11-18T04:29:19;7.20;99.90
23207;DHT22;11773;52.570;13.052;2023-11-18T04:31:50;7.20;99.90
23207;DHT22;11773;52.570;13.052;2023-11-18T04:34:21;7.20;99.90
23207;DHT22;11773;52.570;13.052;2023-11-18T04:36:52;7.20;99.90
23207;DHT22;11773;52.570;13.052;2023-11-18T04:39:22;7.20;99.90
23207;DHT22;11773;52.570;13.052;2023-11-18T04:41:53;7.10;99.90
23207;DHT22;11773;52.570;13.052;2023-11-18T04:44:24;7.00;99.90
23207;DHT22;11773;52.570;13.052;2023-11-18T04:46:54;7.00;99.90
23207;DHT22;11773;52.570;13.052;2023-11-18T04:49:24;7.00;99.90
23207;DHT22;11773;52.570;13.052;2023-11-18T04:51:54;7.00;99.90
23207;DHT22;11773;52.570;13.052;2023-11-18T04:54:23;6.90;99.90
23207;DHT22;11773;52.570;13.052;2023-11-18T04:56:53;7.10;99.90
23207;DHT22;11773;52.570;13.052;2023-11-18T04:59:22;7.10;99.90
23207;DHT22;11773;52.570;13.052;2023-11-18T05:01:52;7.10;99.90
23207;DHT22;11773;52.570;13.052;2023-11-18T05:04:22;7.20;99.90
23207;DHT22;11773;52.570;13.052;2023-11-18T05:06:51;7.10;99.90
23207;DHT22;11773;52.570;13.052;2023-11-18T05:09:21;7.00;99.90
23207;DHT22;11773;52.570;13.052;2023-11-18T05:14:29;7.20;99.90
23207;DHT22;11773;52.570;13.052;2023-11-18T05:17:00;7.30;99.90
23207;DHT22;11773;52.570;13.052;2023-11-18T05:19:31;7.20;99.90
23207;DHT22;11773;52.570;13.052;2023-11-18T05:22:01;7.10;99.90
23207;DHT22;11773;52.570;13.052;2023-11-18T05:24:31;7.20;99.90
23207;DHT22;11773;52.570;13.052;2023-11-18T05:27:00;7.20;99.90
23207;DHT22;11773;52.570;13.052;2023-11-18T05:29:30;7.20;99.90
23207;DHT22;11773;52.570;13.052;2023-11-18T05:32:00;7.20;99.90
23207;DHT22;11773;52.570;13.052;2023-11-18T05:34:30;7.20;99.90
23207;DHT22;11773;52.570;13.052;2023-11-18T05:36:59;7.00;99.90
23207;DHT22;11773;52.570;13.052;2023-11-18T05:39:29;6.90;99.90
23207;DHT22;11773;52.570;13.052;2023-11-18T05:41:59;7.10;99.90
23207;DHT22;11773;52.570;13.052;2023-11-18T05:44:28;7.10;99.90
23207;DHT22;11773;52.570;13.052;2023-11-18T05:47:02;7.00;99.90
23207;DHT22;11773;52.570;13.052;2023-11-18T05:49:33;7.00;99.90
23207;DHT22;11773;52.570;13.052;2023-11-18T05:52:03;7.00;99.90
23207;DHT22;11773;52.570;13.052;2023-11-18T05:54:34;7.00;99.90
23207;DHT22;11773;52.570;13.052;2023-11-18T05:57:04;7.10;99.90
23207;DHT22;11773;52.570;13.052;2023-11-18T05:59:33;7.10;99.90
23207;DHT22;11773;52.570;13.052;2023-11-18T06:02:04;7.20;99.90
23207;DHT22;11773;52.570;13.052;2023-11-18T06:04:34;7.20;99.90
23207;DHT22;11773;52.570;13.052;2023-11-18T06:07:03;7.10;99.90
23207;DHT22;11773;52.570;13.052;2023-11-18T06:09:33;7.10;99.90
23207;DHT22;11773;52.570;13.052;2023-11-18T06:12:03;7.20;99.90
23207;DHT22;11773;52.570;13.052;2023-11-18T06:14:34;7.20;99.90
23207;DHT22;11773;52.570;13.052;2023-11-18T06:17:05;7.10;99.90
23207;DHT22;11773;52.570;13.052;2023-11-18T06:19:36;7.30;99.90
23207;DHT22;11773;52.570;13.052;2023-11-18T06:22:06;7.20;99.90
23207;DHT22;11773;52.570;13.052;2023-11-18T06:24:35;7.30;99.90
23207;DHT22;11773;52.570;13.052;2023-11-18T06:27:07;7.30;99.90
23207;DHT22;11773;52.570;13.052;2023-11-18T06:29:37;7.20;99.90
23207;DHT22;11773;52.570;13.052;2023-11-18T06:32:08;7.10;99.90
23207;DHT22;11773;52.570;13.052;2023-11-18T06:34:37;7.20;99.90
23207;DHT22;11773;52.570;13.052;2023-11-18T06:37:07;7.20;99.90
23207;DHT22;11773;52.570;13.052;2023-11-18T06:39:41;7.10;99.90
23207;DHT22;11773;52.570;13.052;2023-11-18T06:42:13;7.20;99.90
23207;DHT22;11773;52.570;13.052;2023-11-18T06:44:42;7.20;99.90
23207;DHT22;11773;52.570;13.052;2023-11-18T06:47:12;7.30;99.90
23207;DHT22;11773;52.570;13.052;2023-11-18T06:49:42;7.30;99.90
23207;DHT22;11773;52.570;13.052;2023-11-18T06:52:11;7.30;99.90
23207;DHT22;11773;52.570;13.052;2023-11-18T06:54:41;7.30;99.90
23207;DHT22;11773;52.570;13.052;2023-11-18T06:57:11;7.20;99.90
23207;DHT22;11773;52.570;13.052;2023-11-18T06:59:41;7.30;99.90
23207;DHT22;11773;52.570;13.052;2023-11-18T07:02:10;7.40;99.90
23207;DHT22;11773;52.570;13.052;2023-11-18T07:04:40;7.40;99.90
23207;DHT22;11773;52.570;13.052;2023-11-18T07:07:10;7.40;99.90
23207;DHT22;11773;52.570;13.052;2023-11-18T07:09:40;7.40;99.90
23207;DHT22;11773;52.570;13.052;2023-11-18T07:12:11;7.40;99.90
23207;DHT22;11773;52.570;13.052;2023-11-18T07:14:41;7.30;99.90
23207;DHT22;11773;52.570;13.052;2023-11-18T07:17:10;7.30;99.90
23207;DHT22;11773;52.570;13.052;2023-11-18T07:19:40;7.40;99.90
23207;DHT22;11773;52.570;13.052;2023-11-18T07:22:11;7.40;99.90
23207;DHT22;11773;52.570;13.052;2023-11-18T07:24:42;7.30;99.90
23207;DHT22;11773;52.570;13.052;2023-11-18T07:27:12;7.40;99.90
23207;DHT22;11773;52.570;13.052;2023-11-18T07:29:41;7.40;99.90
23207;DHT22;11773;52.570;13.052;2023-11-18T07:32:12;7.40;99.90
23207;DHT22;11773;52.570;13.052;2023-11-18T07:34:42;7.50;99.90
23207;DHT22;11773;52.570;13.052;2023-11-18T07:37:12;7.50;99.90
23207;DHT22;11773;52.570;13.052;2023-11-18T07:39:42;7.60;99.90
23207;DHT22;11773;52.570;13.052;2023-11-18T07:42:16;7.60;99.90
23207;DHT22;11773;52.570;13.052;2023-11-18T07:44:46;7.60;99.90
23207;DHT22;11773;52.570;13.052;2023-11-18T07:47:16;7.50;99.90
23207;DHT22;11773;52.570;13.052;2023-11-18T07:49:47;7.60;99.90
23207;DHT22;11773;52.570;13.052;2023-11-18T07:52:17;7.50;99.90
23207;DHT22;11773;52.570;13.052;2023-11-18T07:54:46;7.60;99.90
23207;DHT22;11773;52.570;13.052;2023-11-18T07:57:18;7.50;99.90
23207;DHT22;11773;52.570;13.052;2023-11-18T07:59:47;7.60;99.90
23207;DHT22;11773;52.570;13.052;2023-11-18T08:02:17;7.60;99.90
23207;DHT22;11773;52.570;13.052;2023-11-18T08:04:48;7.60;99.90
23207;DHT22;11773;52.570;13.052;2023-11-18T08:07:17;7.60;99.90
23207;DHT22;11773;52.570;13.052;2023-11-18T08:09:47;7.60;99.90
23207;DHT22;11773;52.570;13.052;2023-11-18T08:12:16;7.60;99.90
23207;DHT22;11773;52.570;13.052;2023-11-18T08:14:46;7.60;99.90
23207;DHT22;11773;52.570;13.052;2023-11-18T08:17:16;7.50;99.90
23207;DHT22;11773;52.570;13.052;2023-11-18T08:19:45;7.70;99.90
23207;DHT22;11773;52.570;13.052;2023-11-18T08:22:15;7.70;99.90
23207;DHT22;11773;52.570;13.052;2023-11-18T08:24:47;7.60;99.90
23207;DHT22;11773;52.570;13.052;2023-11-18T08:27:17;7.60;99.90
23207;DHT22;11773;52.570;13.052;2023-11-18T08:29:48;7.70;99.90
23207;DHT22;11773;52.570;13.052;2023-11-18T08:32:17;7.80;99.90
23207;DHT22;11773;52.570;13.052;2023-11-18T08:34:48;7.80;99.90
23207;DHT22;11773;52.570;13.052;2023-11-18T08:37:19;7.70;99.90
23207;DHT22;11773;52.570;13.052;2023-11-18T08:39:48;7.80;99.90
23207;DHT22;11773;52.570;13.052;2023-11-18T08:42:18;7.80;99.90
23207;DHT22;11773;52.570;13.052;2023-11-18T08:44:48;7.90;99.90
23207;DHT22;11773;52.570;13.052;2023-11-18T08:47:17;7.90;99.90
23207;DHT22;11773;52.570;13.052;2023-11-18T08:49:47;7.80;99.90
23207;DHT22;11773;52.570;13.052;2023-11-18T08:52:17;7.90;99.90
23207;DHT22;11773;52.570;13.052;2023-11-18T08:54:47;7.80;99.90
23207;DHT22;11773;52.570;13.052;2023-11-18T08:57:35;7.80;99.90
23207;DHT22;11773;52.570;13.052;2023-11-18T09:00:08;7.90;99.90
23207;DHT22;11773;52.570;13.052;2023-11-18T09:02:39;7.90;99.90
23207;DHT22;11773;52.570;13.052;2023-11-18T09:05:12;7.80;99.90
23207;DHT22;11773;52.570;13.052;2023-11-18T09:07:42;7.90;99.90
23207;DHT22;11773;52.570;13.052;2023-11-18T09:10:14;7.90;99.90
23207;DHT22;11773;52.570;13.052;2023-11-18T09:12:47;7.90;99.90
23207;DHT22;11773;52.570;13.052;2023-11-18T09:15:16;7.70;99.90
23207;DHT22;11773;52.570;13.052;2023-11-18T09:17:48;7.80;99.90
23207;DHT22;11773;52.570;13.052;2023-11-18T09:20:21;7.90;99.90
23207;DHT22;11773;52.570;13.052;2023-11-18T09:22:50;7.90;99.90
23207;DHT22;11773;52.570;13.052;2023-11-18T09:25:21;7.80;99.90
23207;DHT22;11773;52.570;13.052;2023-11-18T09:27:51;7.90;99.90
23207;DHT22;11773;52.570;13.052;2023-11-18T09:30:21;8.00;99.90
23207;DHT22;11773;52.570;13.052;2023-11-18T09:32:52;8.00;99.90
23207;DHT22;11773;52.570;13.052;2023-11-18T09:35:22;8.00;99.90
23207;DHT22;11773;52.570;13.052;2023-11-18T09:37:51;8.00;99.90
23207;DHT22;11773;52.570;13.052;2023-11-18T09:40:23;8.00;99.90
23207;DHT22;11773;52.570;13.052;2023-11-18T09:42:57;8.00;99.90
23207;DHT22;11773;52.570;13.052;2023-11-18T09:45:28;8.00;99.90
23207;DHT22;11773;52.570;13.052;2023-11-18T09:48:00;7.90;99.90
23207;DHT22;11773;52.570;13.052;2023-11-18T09:50:36;8.10;99.90
23207;DHT22;11773;52.570;13.052;2023-11-18T09:53:08;8.10;99.90
23207;DHT22;11773;52.570;13.052;2023-11-18T09:55:49;8.10;99.90
23207;DHT22;11773;52.570;13.052;2023-11-18T09:58:30;8.30;99.90
23207;DHT22;11773;52.570;13.052;2023-11-18T10:01:01;8.10;99.90
23207;DHT22;11773;52.570;13.052;2023-11-18T10:03:32;8.00;99.90
23207;DHT22;11773;52.570;13.052;2023-11-18T10:06:06;8.10;99.90
23207;DHT22;11773;52.570;13.052;2023-11-18T10:08:37;8.20;99.90
23207;DHT22;11773;52.570;13.052;2023-11-18T10:11:07;8.20;99.90
23207;DHT22;11773;52.570;13.052;2023-11-18T10:13:37;8.20;99.90
23207;DHT22;11773;52.570;13.052;2023-11-18T10:16:08;8.30;99.90
23207;DHT22;11773;52.570;13.052;2023-11-18T10:18:39;8.20;99.90
23207;DHT22;11773;52.570;13.052;2023-11-18T10:21:10;8.30;99.90
23207;DHT22;11773;52.570;13.052;2023-11-18T10:24:05;8.40;99.90
23207;DHT22;11773;52.570;13.052;2023-11-18T10:26:33;8.30;99.90
23207;DHT22;11773;52.570;13.052;2023-11-18T10:29:03;8.40;99.90
23207;DHT22;11773;52.570;13.052;2023-11-18T10:31:35;8.40;99.90
23207;DHT22;11773;52.570;13.052;2023-11-18T10:34:07;8.50;99.90
23207;DHT22;11773;52.570;13.052;2023-11-18T10:36:39;8.60;99.90
23207;DHT22;11773;52.570;13.052;2023-11-18T10:39:10;8.50;99.90
23207;DHT22;11773;52.570;13.052;2023-11-18T10:41:44;8.50;99.90
23207;DHT22;11773;52.570;13.052;2023-11-18T10:44:15;8.30;99.90
23207;DHT22;11773;52.570;13.052;2023-11-18T10:46:52;8.50;99.90
23207;DHT22;11773;52.570;13.052;2023-11-18T10:49:22;8.40;99.90
23207;DHT22;11773;52.570;13.052;2023-11-18T10:51:52;8.50;99.90
23207;DHT22;11773;52.570;13.052;2023-11-18T10:54:22;8.40;99.90
23207;DHT22;11773;52.570;13.052;2023-11-18T10:56:53;8.30;99.90
23207;DHT22;11773;52.570;13.052;2023-11-18T10:59:26;8.30;99.90
23207;DHT22;11773;52.570;13.052;2023-11-18T11:01:55;8.20;99.90
23207;DHT22;11773;52.570;13.052;2023-11-18T11:04:26;8.20;99.90
23207;DHT22;11773;52.570;13.052;2023-11-18T11:06:57;8.20;99.90
23207;DHT22;11773;52.570;13.052;2023-11-18T11:09:28;8.10;99.90
23207;DHT22;11773;52.570;13.052;2023-11-18T11:12:00;8.20;99.90
23207;DHT22;11773;52.570;13.052;2023-11-18T11:14:34;8.20;99.90
23207;DHT22;11773;52.570;13.052;2023-11-18T11:17:13;8.20;99.90
23207;DHT22;11773;52.570;13.052;2023-11-18T11:20:03;8.20;99.90
23207;DHT22;11773;52.570;13.052;2023-11-18T11:23:05;8.30;99.90
23207;DHT22;11773;52.570;13.052;2023-11-18T11:28:31;8.30;99.90
23207;DHT22;11773;52.570;13.052;2023-11-18T11:31:21;8.10;99.90
23207;DHT22;11773;52.570;13.052;2023-11-18T11:34:18;8.10;99.90
23207;DHT22;11773;52.570;13.052;2023-11-18T11:36:51;8.10;99.90
23207;DHT22;11773;52.570;13.052;2023-11-18T11:39:22;8.00;99.90
23207;DHT22;11773;52.570;13.052;2023-11-18T11:41:56;8.00;99.90
23207;DHT22;11773;52.570;13.052;2023-11-18T11:44:27;8.10;99.90
23207;DHT22;11773;52.570;13.052;2023-11-18T11:46:59;8.30;99.90
23207;DHT22;11773;52.570;13.052;2023-11-18T11:49:41;8.40;99.90
23207;DHT22;11773;52.570;13.052;2023-11-18T11:52:30;8.50;99.90
23207;DHT22;11773;52.570;13.052;2023-11-18T11:55:10;8.20;99.90
23207;DHT22;11773;52.570;13.052;2023-11-18T11:57:58;8.10;99.90
23207;DHT22;11773;52.570;13.052;2023-11-18T12:00:28;8.10;99.90
23207;DHT22;11773;52.570;13.052;2023-11-18T12:03:01;8.10;99.90
23207;DHT22;11773;52.570;13.052;2023-11-18T12:05:32;8.00;99.90
23207;DHT22;11773;52.570;13.052;2023-11-18T12:08:03;8.00;99.90
23207;DHT22;11773;52.570;13.052;2023-11-18T12:10:37;7.50;99.90
23207;DHT22;11773;52.570;13.052;2023-11-18T12:13:11;7.70;99.90
23207;DHT22;11773;52.570;13.052;2023-11-18T12:15:54;8.00;99.90
23207;DHT22;11773;52.570;13.052;2023-11-18T12:18:28;8.10;99.90
23207;DHT22;11773;52.570;13.052;2023-11-18T12:21:03;8.00;99.90
23207;DHT22;11773;52.570;13.052;2023-11-18T12:23:32;8.00;99.90
23207;DHT22;11773;52.570;13.052;2023-11-18T12:26:37;8.10;99.90
23207;DHT22;11773;52.570;13.052;2023-11-18T12:28:38;8.10;99.90
23207;DHT22;11773;52.570;13.052;2023-11-18T12:31:11;8.00;99.90
23207;DHT22;11773;52.570;13.052;2023-11-18T12:36:44;8.00;99.90
23207;DHT22;11773;52.570;13.052;2023-11-18T12:47:53;8.00;99.90
23207;DHT22;11773;52.570;13.052;2023-11-18T12:50:26;7.90;99.90
23207;DHT22;11773;52.570;13.052;2023-11-18T12:52:56;8.00;99.90
23207;DHT22;11773;52.570;13.052;2023-11-18T12:55:27;8.00;99.90
23207;DHT22;11773;52.570;13.052;2023-11-18T12:58:00;7.90;99.90
23207;DHT22;11773;52.570;13.052;2023-11-18T13:00:32;7.90;99.90
23207;DHT22;11773;52.570;13.052;2023-11-18T13:03:03;7.70;99.90
23207;DHT22;11773;52.570;13.052;2023-11-18T13:05:35;7.80;99.90
23207;DHT22;11773;52.570;13.052;2023-11-18T13:08:04;7.90;99.90
23207;DHT22;11773;52.570;13.052;2023-11-18T13:10:35;8.00;99.90
23207;DHT22;11773;52.570;13.052;2023-11-18T13:13:04;8.00;99.90
23207;DHT22;11773;52.570;13.052;2023-11-18T13:15:36;8.00;99.90
23207;DHT22;11773;52.570;13.052;2023-11-18T13:18:05;8.10;99.90
23207;DHT22;11773;52.570;13.052;2023-11-18T13:20:35;8.10;99.90
23207;DHT22;11773;52.570;13.052;2023-11-18T13:23:09;8.00;99.90
23207;DHT22;11773;52.570;13.052;2023-11-18T13:25:40;7.90;99.90
23207;DHT22;11773;52.570;13.052;2023-11-18T13:28:10;7.90;99.90
23207;DHT22;11773;52.570;13.052;2023-11-18T13:30:41;7.90;99.90
23207;DHT22;11773;52.570;13.052;2023-11-18T13:33:12;8.00;99.90
23207;DHT22;11773;52.570;13.052;2023-11-18T13:35:42;8.00;99.90
23207;DHT22;11773;52.570;13.052;2023-11-18T13:38:16;8.00;99.90
23207;DHT22;11773;52.570;13.052;2023-11-18T13:40:47;8.00;99.90
23207;DHT22;11773;52.570;13.052;2023-11-18T13:43:16;8.00;99.90
23207;DHT22;11773;52.570;13.052;2023-11-18T13:45:52;7.90;99.90
23207;DHT22;11773;52.570;13.052;2023-11-18T13:48:22;7.90;99.90
23207;DHT22;11773;52.570;13.052;2023-11-18T13:50:52;8.00;99.90
23207;DHT22;11773;52.570;13.052;2023-11-18T13:53:22;8.00;99.90
23207;DHT22;11773;52.570;13.052;2023-11-18T13:55:52;8.00;99.90
23207;DHT22;11773;52.570;13.052;2023-11-18T13:58:22;8.00;99.90
23207;DHT22;11773;52.570;13.052;2023-11-18T14:00:52;8.00;99.90
23207;DHT22;11773;52.570;13.052;2023-11-18T14:03:23;7.80;99.90
23207;DHT22;11773;52.570;13.052;2023-11-18T14:05:57;7.80;99.90
23207;DHT22;11773;52.570;13.052;2023-11-18T14:08:29;7.90;99.90
23207;DHT22;11773;52.570;13.052;2023-11-18T14:10:58;7.90;99.90
23207;DHT22;11773;52.570;13.052;2023-11-18T14:13:30;7.80;99.90
23207;DHT22;11773;52.570;13.052;2023-11-18T14:16:02;7.80;99.90
23207;DHT22;11773;52.570;13.052;2023-11-18T14:18:34;7.90;99.90
23207;DHT22;11773;52.570;13.052;2023-11-18T14:21:04;7.80;99.90
23207;DHT22;11773;52.570;13.052;2023-11-18T14:23:33;7.80;99.90
23207;DHT22;11773;52.570;13.052;2023-11-18T14:26:05;7.80;99.90
23207;DHT22;11773;52.570;13.052;2023-11-18T14:28:38;7.80;99.90
23207;DHT22;11773;52.570;13.052;2023-11-18T14:31:07;7.80;99.90
23207;DHT22;11773;52.570;13.052;2023-11-18T14:33:38;8.00;99.90
23207;DHT22;11773;52.570;13.052;2023-11-18T14:36:08;8.00;99.90
23207;DHT22;11773;52.570;13.052;2023-11-18T14:38:39;8.00;99.90
23207;DHT22;11773;52.570;13.052;2023-11-18T14:41:08;7.90;99.90
23207;DHT22;11773;52.570;13.052;2023-11-18T14:43:38;7.80;99.90
23207;DHT22;11773;52.570;13.052;2023-11-18T14:46:09;7.70;99.90
23207;DHT22;11773;52.570;13.052;2023-11-18T14:48:39;7.70;99.90
23207;DHT22;11773;52.570;13.052;2023-11-18T14:51:10;7.80;99.90
23207;DHT22;11773;52.570;13.052;2023-11-18T14:53:39;7.90;99.90
23207;DHT22;11773;52.570;13.052;2023-11-18T14:56:11;7.90;99.90
23207;DHT22;11773;52.570;13.052;2023-11-18T14:58:40;7.90;99.90
23207;DHT22;11773;52.570;13.052;2023-11-18T15:01:11;7.90;99.90
23207;DHT22;11773;52.570;13.052;2023-11-18T15:03:40;7.80;99.90
23207;DHT22;11773;52.570;13.052;2023-11-18T15:06:10;7.90;99.90
23207;DHT22;11773;52.570;13.052;2023-11-18T15:08:40;7.80;99.90
23207;DHT22;11773;52.570;13.052;2023-11-18T15:11:11;7.50;99.90
23207;DHT22;11773;52.570;13.052;2023-11-18T15:13:43;7.70;99.90
23207;DHT22;11773;52.570;13.052;2023-11-18T15:16:12;7.60;99.90
23207;DHT22;11773;52.570;13.052;2023-11-18T15:18:42;7.50;99.90
23207;DHT22;11773;52.570;13.052;2023-11-18T15:21:13;7.60;99.90
23207;DHT22;11773;52.570;13.052;2023-11-18T15:23:43;7.70;99.90
23207;DHT22;11773;52.570;13.052;2023-11-18T15:26:13;7.80;99.90
23207;DHT22;11773;52.570;13.052;2023-11-18T15:28:43;7.80;99.90
23207;DHT22;11773;52.570;13.052;2023-11-18T15:31:12;7.80;99.90
23207;DHT22;11773;52.570;13.052;2023-11-18T15:33:42;7.80;99.90
23207;DHT22;11773;52.570;13.052;2023-11-18T15:36:13;7.60;99.90
23207;DHT22;11773;52.570;13.052;2023-11-18T15:38:42;7.60;99.90
23207;DHT22;11773;52.570;13.052;2023-11-18T15:41:13;7.60;99.90
23207;DHT22;11773;52.570;13.052;2023-11-18T15:43:42;7.70;99.90
23207;DHT22;11773;52.570;13.052;2023-11-18T15:46:12;7.50;99.90
23207;DHT22;11773;52.570;13.052;2023-11-18T15:48:42;7.40;99.90
23207;DHT22;11773;52.570;13.052;2023-11-18T15:51:11;7.30;99.90
23207;DHT22;11773;52.570;13.052;2023-11-18T15:53:43;7.20;99.90
23207;DHT22;11773;52.570;13.052;2023-11-18T15:56:12;7.40;99.90
23207;DHT22;11773;52.570;13.052;2023-11-18T15:58:43;7.40;99.90
23207;DHT22;11773;52.570;13.052;2023-11-18T16:01:14;7.30;99.90
23207;DHT22;11773;52.570;13.052;2023-11-18T16:03:43;7.20;99.90
23207;DHT22;11773;52.570;13.052;2023-11-18T16:06:14;7.30;99.90
23207;DHT22;11773;52.570;13.052;2023-11-18T16:08:43;7.20;99.90
23207;DHT22;11773;52.570;13.052;2023-11-18T16:11:15;7.20;99.90
23207;DHT22;11773;52.570;13.052;2023-11-18T16:13:44;7.10;99.90